Lees voor het posten de FAQ.

Als je iets zoekt op het forum kun je de zoekmachine raadplegen.

Onderwerp Replies Naam starter Datum
Documentatie Wayne Kerr LCR-meetbrug CT-492 3 GZ34 17-08-2018 13:32:47
Timecontrol energiemeter defect , welke ic's zijn dit ? 9 Bart64 17-08-2018 11:17:05
wattmeter op Exendis gridfit omvormer : AC of DC ? 14 Bart64 15-08-2018 19:14:03
test probes 20 Vinifera 14-08-2018 11:28:34
Rigol DG4162 0 Mathieu Verhorst 11-08-2018 13:48:37
Spannings Referentie - Hao-Qi-Xin Spannings Referentie - Hao-Qi-Xin 1 2 3 4 5 6 7 8 laatste 180 blackdog 08-08-2018 16:06:23
HP6030a geen uitgangsspanning 6 Hoeben 05-08-2018 16:16:00
Keuze voor tweedehands megger 22 wvdakker 29-07-2018 21:18:43
Meten van een weerstand. Meten van een weerstand. 1 2 laatste 25 rew 28-07-2018 15:37:53
Toledo multimeter defect 12 Bart64 26-07-2018 00:29:01
Dynatek 9100 100MHz oscilloscoop 3 boffin 23-07-2018 13:06:59
EEVBlog DMM 121GW 21 Lupus 21-07-2018 18:25:47
Scoop voor stokkemask metingen en electronica algemeen. 10 GM Tech 19-07-2018 20:12:40
Kwh meter staat stil maar ampèremeter geeft 4 A aan Kwh meter staat stil maar ampèremeter geeft 4 A aan 1 2 laatste 26 ronasper 15-07-2018 20:21:30
Hoe powerbank capaciteit te meten 7 Frankyie 14-07-2018 19:23:53
HP 8558b en HP 18x mainframe 6 Kridri 12-07-2018 10:46:11
Math Functie Rigol DS-2000 series oscilloscope 1 PD5DJ 11-07-2018 16:22:19
PM 7813 0 GeHa 11-07-2018 12:51:34
Elitech RC-4 Temperature Logger Elitech RC-4 Temperature Logger 1 2 laatste 28 flash2b 08-07-2018 09:58:00
Opvoerpomp met nivo-schakeling 16 Eikholt 05-07-2018 12:21:49
Regelbare voeding Monacor PS-230 Regelbare voeding Monacor PS-230 1 2 laatste 32 philip2 04-07-2018 22:13:53
Service manual Dynatek 8020 2 Tizzle020 02-07-2018 14:47:33
Stroommeting 3 fase pomp via PLC 18 Douglas 30-06-2018 21:21:26
Goedkope Ebay SMD microscope, is dat wat? Goedkope Ebay SMD microscope, is dat wat? 1 2 laatste 36 I_like_Electrons 29-06-2018 18:59:11
SA R4131d spectrum analyzer 6 pe1bia 29-06-2018 17:07:44
Handleiding PRECICAL PJN 5208 3 treinfreak 28-06-2018 16:40:51
Weegschaal Weegschaal 1 2 3 4 laatste 90 p4u08400 26-06-2018 22:05:35
HF signaal generator Altai TE-20D 19 soundondisc 25-06-2018 22:14:57
Niveau bepalen d.m.v. tegendruk Niveau bepalen d.m.v. tegendruk 1 2 laatste 25 MWB 24-06-2018 15:12:18
Uiterst bejaarde referentiecel D-845-D van Muirhead 10 pietplof 20-06-2018 23:13:08
Peiling Reisreferentie 18 blackdog 20-06-2018 23:09:52
Lange termijn drift Fluke 8846A DMM Lange termijn drift Fluke 8846A DMM 1 2 laatste 30 miedema 18-06-2018 20:31:03
vraag of defect lcd van multimeter 21 RickD007 18-06-2018 17:05:32
Reparatie Philips scoops (pm3206/pm3207) Reparatie Philips scoops (pm3206/pm3207) 1 2 3 laatste 62 timberleek 17-06-2018 12:09:12
Agilent 85024A probe 4 Mathieu Verhorst 13-06-2018 16:54:03
AC/DC current probe +-100A 0.35%. Is dit wat? 21 Marcel van Ede 12-06-2018 20:11:37
Voeding Philips PM2517 17 Arco 04-06-2018 17:00:35
honeywell gas sensor ( laser scattering) + kachelgeur 24 fablab 04-06-2018 00:17:53
analoge kWh meter maakt ratelend / knetterend geluid? 3 HVinduction 02-06-2018 13:48:17
350V regelbare voeding 350V regelbare voeding 1 2 3 4 5 6 laatste 138 blackdog 01-06-2018 19:17:17
Het synchroniseren van je thuis 10 Volt referentie. Het synchroniseren van je thuis 10 Volt referentie. 1 2 laatste 30 electron920 25-05-2018 14:18:14
ESR Meter van Jay_Diddy_B 17 blackdog 24-05-2018 23:11:34
Philips pm 3200X 10 aapie22 22-05-2018 19:19:21
Voltcraft DPS - 4005 PFC 3 anoniem013 18-05-2018 20:35:16
Extron CVDA video distributie amp modificatie voor 10MHz Extron CVDA video distributie amp modificatie voor 10MHz 1 2 laatste 45 miedema 14-05-2018 15:38:29
Scoop klok te smal in X-Y modus Scoop klok te smal in X-Y modus 1 2 laatste 40 Semtexx 13-05-2018 16:56:46
Reparatie PM3551A Logic Analyser Reparatie PM3551A Logic Analyser 1 2 3 4 5 6 laatste 127 Fire_IC 13-05-2018 12:19:38
meting mbrf20100ctl 6 simonsf 10-05-2018 20:52:23
Diode S1B defect Fluke 175 3 zerox 08-05-2018 14:40:31
Voltcraft Energiemonitor 3000 1 bikejunky 04-05-2018 20:27:10